createdAt,value
2018-07-20T00:01:30.274Z,18.60
2018-07-20T00:03:58.683Z,18.70
2018-07-20T00:06:27.051Z,18.70
2018-07-20T00:13:51.674Z,18.70
2018-07-20T00:16:19.950Z,18.70
2018-07-20T00:21:16.103Z,18.70
2018-07-20T00:23:44.473Z,18.70
2018-07-20T00:26:12.878Z,18.70
2018-07-20T00:28:41.486Z,18.70
2018-07-20T00:33:37.680Z,18.70
2018-07-20T00:38:33.760Z,18.60
2018-07-20T00:41:01.779Z,18.60
2018-07-20T00:43:29.830Z,18.70
2018-07-20T00:48:26.097Z,18.80
2018-07-20T00:50:54.809Z,18.90
2018-07-20T00:55:50.833Z,19.00
2018-07-20T00:58:18.957Z,19.00
2018-07-20T01:00:47.063Z,19.10
2018-07-20T01:05:43.128Z,19.10
2018-07-20T01:08:11.660Z,19.10
2018-07-20T01:13:08.077Z,19.10
2018-07-20T01:15:36.489Z,19.10
2018-07-20T01:18:04.862Z,19.20
2018-07-20T01:23:01.136Z,19.30
2018-07-20T01:25:29.274Z,19.40
2018-07-20T01:27:57.358Z,19.30
2018-07-20T01:30:25.416Z,19.30
2018-07-20T01:32:53.448Z,19.40
2018-07-20T01:35:21.521Z,19.30
2018-07-20T01:37:49.619Z,19.30
2018-07-20T01:40:17.763Z,19.20
2018-07-20T01:42:46.013Z,19.20
2018-07-20T01:45:15.102Z,19.20
2018-07-20T01:47:43.458Z,19.30
2018-07-20T01:50:11.813Z,19.30
2018-07-20T01:52:39.901Z,19.20
2018-07-20T01:55:09.146Z,19.30
2018-07-20T01:57:37.347Z,19.30
2018-07-20T02:00:05.598Z,19.30
2018-07-20T02:02:33.685Z,19.40
2018-07-20T02:05:01.729Z,19.50
2018-07-20T02:07:29.758Z,19.60
2018-07-20T02:09:58.794Z,19.60
2018-07-20T02:12:27.010Z,19.70
2018-07-20T02:14:55.257Z,19.70
2018-07-20T02:17:23.332Z,19.70
2018-07-20T02:19:51.470Z,19.70
2018-07-20T02:22:19.769Z,19.60
2018-07-20T02:24:47.900Z,19.60
2018-07-20T02:27:15.937Z,19.70
2018-07-20T02:29:44.253Z,19.70
2018-07-20T02:32:12.377Z,19.90
2018-07-20T02:34:41.628Z,19.70
2018-07-20T02:37:09.862Z,19.70
2018-07-20T02:39:38.003Z,19.50
2018-07-20T02:42:06.251Z,19.50
2018-07-20T02:44:34.303Z,19.40
2018-07-20T02:47:02.459Z,19.40
2018-07-20T02:49:30.702Z,19.30
2018-07-20T02:51:58.874Z,19.30
2018-07-20T02:54:27.159Z,19.30
2018-07-20T02:56:55.349Z,19.30
2018-07-20T03:01:51.430Z,19.20
2018-07-20T03:09:15.601Z,19.10
2018-07-20T03:11:44.023Z,19.10
2018-07-20T03:14:12.506Z,19.10
2018-07-20T03:16:40.951Z,19.10
2018-07-20T03:21:37.842Z,19.10
2018-07-20T03:24:05.958Z,19.00
2018-07-20T03:26:34.354Z,19.00
2018-07-20T03:29:02.646Z,19.00
2018-07-20T03:31:30.761Z,19.00
2018-07-20T03:36:26.886Z,19.00
2018-07-20T03:38:55.066Z,19.00
2018-07-20T03:41:23.394Z,19.00
2018-07-20T03:43:51.653Z,19.10
2018-07-20T03:46:19.766Z,19.10
2018-07-20T03:48:47.875Z,19.20
2018-07-20T03:53:45.306Z,19.30
2018-07-20T03:56:13.566Z,19.40
2018-07-20T03:58:41.674Z,19.60
2018-07-20T04:01:09.736Z,19.60
2018-07-20T04:03:37.834Z,19.60
2018-07-20T04:06:06.162Z,19.60
2018-07-20T04:08:34.293Z,19.60
2018-07-20T04:11:02.647Z,19.70
2018-07-20T04:13:30.708Z,19.80
2018-07-20T04:15:58.843Z,19.90
2018-07-20T04:18:26.894Z,19.90
2018-07-20T04:20:55.273Z,20.00
2018-07-20T04:23:23.582Z,20.10
2018-07-20T04:28:19.577Z,20.20
2018-07-20T04:30:47.786Z,20.20
2018-07-20T04:33:15.966Z,20.20
2018-07-20T04:38:11.986Z,20.30
2018-07-20T04:40:40.150Z,20.40
2018-07-20T04:43:08.515Z,20.50
2018-07-20T04:48:04.709Z,20.60
2018-07-20T04:50:33.074Z,20.70
2018-07-20T04:53:01.398Z,20.60
2018-07-20T04:55:29.770Z,20.60
2018-07-20T04:57:57.815Z,20.70
2018-07-20T05:02:54.012Z,20.70
2018-07-20T05:05:22.456Z,20.60
2018-07-20T05:07:51.339Z,20.60
2018-07-20T05:10:19.508Z,20.60
2018-07-20T05:12:47.821Z,20.70
2018-07-20T05:15:15.882Z,20.70
2018-07-20T05:22:40.094Z,20.90
2018-07-20T05:25:08.195Z,21.00
2018-07-20T05:27:36.529Z,21.10
2018-07-20T05:30:05.343Z,21.20
2018-07-20T05:32:33.596Z,21.20
2018-07-20T05:35:01.876Z,21.20
2018-07-20T05:37:30.003Z,21.20
2018-07-20T05:39:58.130Z,21.30
2018-07-20T05:42:26.219Z,21.20
2018-07-20T05:44:54.588Z,21.30
2018-07-20T05:47:22.926Z,21.40
2018-07-20T05:49:51.012Z,21.60
2018-07-20T05:52:19.138Z,21.70
2018-07-20T05:54:47.412Z,21.90
2018-07-20T05:57:15.821Z,22.00
2018-07-20T06:04:40.767Z,21.90
2018-07-20T06:07:08.991Z,21.80
2018-07-20T06:09:37.157Z,21.80
2018-07-20T06:12:05.746Z,21.80
2018-07-20T06:14:34.074Z,22.00
2018-07-20T06:17:02.302Z,22.10
2018-07-20T06:19:30.691Z,22.20
2018-07-20T06:21:59.026Z,22.10
2018-07-20T06:26:55.196Z,22.30
2018-07-20T06:29:23.535Z,22.40
2018-07-20T06:31:51.656Z,22.40
2018-07-20T06:39:22.519Z,22.80
2018-07-20T06:41:50.714Z,22.90
2018-07-20T06:44:19.032Z,23.10
2018-07-20T06:51:43.254Z,23.10
2018-07-20T06:54:11.285Z,23.10
2018-07-20T06:56:40.639Z,23.00
2018-07-20T06:59:09.002Z,23.00
2018-07-20T07:01:37.027Z,23.20
2018-07-20T07:09:01.384Z,23.50
2018-07-20T07:13:57.401Z,23.70
2018-07-20T07:16:25.469Z,23.80
2018-07-20T07:18:53.567Z,23.90
2018-07-20T07:21:21.910Z,24.00
2018-07-20T07:23:49.962Z,24.00
2018-07-20T07:26:18.053Z,23.90
2018-07-20T07:28:46.235Z,23.80
2018-07-20T07:33:42.753Z,23.70
2018-07-20T07:36:10.925Z,23.80
2018-07-20T07:41:07.818Z,23.90
2018-07-20T07:43:36.209Z,23.80
2018-07-20T07:46:04.544Z,23.70
2018-07-20T07:53:28.742Z,24.40
2018-07-20T07:55:57.097Z,24.60
2018-07-20T07:58:25.345Z,24.80
2018-07-20T08:00:53.501Z,24.70
2018-07-20T08:05:50.974Z,24.80
2018-07-20T08:08:19.428Z,25.00
2018-07-20T08:11:50.703Z,25.40
2018-07-20T08:16:47.390Z,26.30
2018-07-20T08:21:44.258Z,26.60
2018-07-20T08:24:12.930Z,27.10
2018-07-20T08:26:41.644Z,26.90
2018-07-20T08:31:38.634Z,26.80
2018-07-20T08:39:03.006Z,27.70
2018-07-20T08:41:31.214Z,27.80
2018-07-20T08:43:59.545Z,28.30
2018-07-20T08:46:27.610Z,27.80
2018-07-20T08:48:56.659Z,27.70
2018-07-20T08:51:24.981Z,28.10
2018-07-20T08:56:21.231Z,28.60
2018-07-20T09:06:14.325Z,27.70
2018-07-20T09:08:42.438Z,27.80
2018-07-20T09:11:11.487Z,28.50
2018-07-20T09:13:39.910Z,29.00
2018-07-20T09:18:36.024Z,29.30
2018-07-20T09:21:04.805Z,29.30
2018-07-20T09:23:33.665Z,29.10
2018-07-20T09:28:30.776Z,28.50
2018-07-20T09:30:59.421Z,28.70
2018-07-20T09:33:28.130Z,29.10
2018-07-20T09:35:56.890Z,29.30
2018-07-20T09:38:25.276Z,28.40
2018-07-20T09:43:21.589Z,29.60
2018-07-20T09:45:49.683Z,29.50
2018-07-20T09:48:19.042Z,29.00
2018-07-20T09:50:47.301Z,28.40
2018-07-20T09:58:11.675Z,28.10
2018-07-20T10:03:13.244Z,28.70
2018-07-20T10:10:37.996Z,29.50
2018-07-20T10:13:06.203Z,29.40
2018-07-20T10:15:34.542Z,29.10
2018-07-20T10:18:02.826Z,29.00
2018-07-20T10:22:59.518Z,29.40
2018-07-20T10:25:27.724Z,30.00
2018-07-20T10:30:24.770Z,30.30
2018-07-20T10:35:20.695Z,29.60
2018-07-20T10:37:49.032Z,29.40
2018-07-20T10:40:17.367Z,29.50
2018-07-20T10:42:45.782Z,29.70
2018-07-20T10:45:13.821Z,29.70
2018-07-20T10:47:42.186Z,29.60
2018-07-20T10:50:10.494Z,29.50
2018-07-20T10:52:38.614Z,29.30
2018-07-20T10:55:06.652Z,29.10
2018-07-20T10:57:34.778Z,28.80
2018-07-20T11:00:02.970Z,28.60
2018-07-20T11:04:59.414Z,29.10
2018-07-20T11:07:27.496Z,29.30
2018-07-20T11:09:55.785Z,29.50
2018-07-20T11:17:19.921Z,29.00
2018-07-20T11:19:48.339Z,28.80
2018-07-20T11:22:16.662Z,28.70
2018-07-20T11:24:45.125Z,29.10
2018-07-20T11:27:13.510Z,29.40
2018-07-20T11:29:41.844Z,29.70
2018-07-20T11:32:09.866Z,30.00
2018-07-20T11:34:37.976Z,30.20
2018-07-20T11:37:06.059Z,30.00
2018-07-20T11:39:34.138Z,30.00
2018-07-20T11:42:02.221Z,29.80
2018-07-20T11:44:30.582Z,29.90
2018-07-20T11:46:59.651Z,30.30
2018-07-20T11:51:55.732Z,29.80
2018-07-20T11:54:24.053Z,29.90
2018-07-20T11:59:20.250Z,29.30
2018-07-20T12:01:48.629Z,29.30
2018-07-20T12:11:42.402Z,29.00
2018-07-20T12:14:10.542Z,29.00
2018-07-20T12:16:39.128Z,29.10
2018-07-20T12:19:07.338Z,29.30
2018-07-20T12:21:35.629Z,29.40
2018-07-20T12:24:03.650Z,29.60
2018-07-20T12:26:31.798Z,29.70
2018-07-20T12:28:59.829Z,29.60
2018-07-20T12:31:27.858Z,29.50
2018-07-20T12:33:56.064Z,29.40
2018-07-20T12:38:52.101Z,29.40
2018-07-20T12:41:20.078Z,29.30
2018-07-20T12:43:48.262Z,29.30
2018-07-20T12:46:16.661Z,29.40
2018-07-20T12:48:44.718Z,29.30
2018-07-20T12:51:12.726Z,29.50
2018-07-20T12:53:40.809Z,29.20
2018-07-20T12:56:08.943Z,28.70
2018-07-20T12:58:37.077Z,28.40
2018-07-20T13:01:05.345Z,28.50
2018-07-20T13:03:33.496Z,28.60
2018-07-20T13:06:01.867Z,28.50
2018-07-20T13:08:30.280Z,28.80
2018-07-20T13:10:58.746Z,28.90
2018-07-20T13:13:26.921Z,28.90
2018-07-20T13:15:55.098Z,28.80
2018-07-20T13:18:23.422Z,28.60
2018-07-20T13:20:51.519Z,28.40
2018-07-20T13:23:19.867Z,28.10
2018-07-20T13:25:47.951Z,28.30
2018-07-20T13:28:16.091Z,28.50
2018-07-20T13:33:13.429Z,28.70
2018-07-20T13:35:41.787Z,28.70
2018-07-20T13:38:10.270Z,28.60
2018-07-20T13:40:38.515Z,28.60
2018-07-20T13:43:06.706Z,28.70
2018-07-20T13:45:34.974Z,28.70
2018-07-20T13:48:03.055Z,28.70
2018-07-20T13:52:59.311Z,28.90
2018-07-20T13:57:55.310Z,29.00
2018-07-20T14:02:52.347Z,29.00
2018-07-20T14:05:20.778Z,29.10
2018-07-20T14:07:48.811Z,29.10
2018-07-20T14:10:16.875Z,28.90
2018-07-20T14:12:44.990Z,28.90
2018-07-20T14:17:40.918Z,28.70
2018-07-20T14:20:09.198Z,28.70
2018-07-20T14:22:37.226Z,28.50
2018-07-20T14:25:05.289Z,28.30
2018-07-20T14:30:01.187Z,28.70
2018-07-20T14:32:29.795Z,28.60
2018-07-20T14:34:57.885Z,28.70
2018-07-20T14:37:26.014Z,28.80
2018-07-20T14:39:54.321Z,28.80
2018-07-20T14:42:23.431Z,28.80
2018-07-20T14:44:51.689Z,28.80
2018-07-20T14:47:19.913Z,28.50
2018-07-20T14:52:16.019Z,28.20
2018-07-20T14:54:44.406Z,28.20
2018-07-20T14:59:40.542Z,28.10
2018-07-20T15:02:09.206Z,28.20
2018-07-20T15:04:38.007Z,28.10
2018-07-20T15:07:06.586Z,28.00
2018-07-20T15:09:35.491Z,27.90
2018-07-20T15:12:03.939Z,27.90
2018-07-20T15:14:32.594Z,27.80
2018-07-20T15:17:01.345Z,27.80
2018-07-20T15:19:30.063Z,27.60
2018-07-20T15:21:58.808Z,27.60
2018-07-20T15:24:27.462Z,27.60
2018-07-20T15:26:56.077Z,27.60
2018-07-20T15:29:25.081Z,27.60
2018-07-20T15:31:54.912Z,27.40
2018-07-20T15:36:52.699Z,27.30
2018-07-20T15:39:21.312Z,27.00
2018-07-20T15:41:50.082Z,27.00
2018-07-20T15:44:19.122Z,27.00
2018-07-20T15:46:47.933Z,26.90
2018-07-20T15:49:16.131Z,26.80
2018-07-20T15:54:13.719Z,26.70
2018-07-20T15:56:42.186Z,26.70
2018-07-20T15:59:10.586Z,26.60
2018-07-20T16:01:39.118Z,26.40
2018-07-20T16:04:07.593Z,26.40
2018-07-20T16:11:33.946Z,26.30
2018-07-20T16:16:29.978Z,26.40
2018-07-20T16:18:58.350Z,26.20
2018-07-20T16:21:26.603Z,26.10
2018-07-20T16:23:54.911Z,26.00
2018-07-20T16:33:47.167Z,25.70
2018-07-20T16:36:16.470Z,25.60
2018-07-20T16:38:44.486Z,25.50
2018-07-20T16:41:12.579Z,25.40
2018-07-20T16:43:40.746Z,25.30
2018-07-20T16:46:09.078Z,25.30
2018-07-20T16:48:37.058Z,25.30
2018-07-20T16:53:33.251Z,25.10
2018-07-20T16:56:01.346Z,25.00
2018-07-20T16:58:29.801Z,25.00
2018-07-20T17:00:58.021Z,25.10
2018-07-20T17:03:26.279Z,25.10
2018-07-20T17:05:54.551Z,25.00
2018-07-20T17:08:22.918Z,25.00
2018-07-20T17:10:51.079Z,24.90
2018-07-20T17:13:19.309Z,24.80
2018-07-20T17:20:43.606Z,24.50
2018-07-20T17:23:11.952Z,24.50
2018-07-20T17:25:39.973Z,24.40
2018-07-20T17:28:07.986Z,24.20
2018-07-20T17:30:36.133Z,24.20
2018-07-20T17:35:32.245Z,24.10
2018-07-20T17:38:00.441Z,24.10
2018-07-20T17:40:28.757Z,24.10
2018-07-20T17:42:56.767Z,24.10
2018-07-20T17:45:24.933Z,24.10
2018-07-20T17:47:53.253Z,24.00
2018-07-20T17:50:21.417Z,23.90
2018-07-20T17:52:49.673Z,24.00
2018-07-20T17:55:17.831Z,23.80
2018-07-20T17:57:46.185Z,23.80
2018-07-20T18:00:14.314Z,23.70
2018-07-20T18:02:42.584Z,23.70
2018-07-20T18:05:10.618Z,23.50
2018-07-20T18:07:38.770Z,23.50
2018-07-20T18:10:07.154Z,23.50
2018-07-20T18:12:35.246Z,23.50
2018-07-20T18:15:04.075Z,23.60
2018-07-20T18:17:32.614Z,23.40
2018-07-20T18:20:00.933Z,23.50
2018-07-20T18:22:29.249Z,23.50
2018-07-20T18:24:57.284Z,23.40
2018-07-20T18:27:25.464Z,23.40
2018-07-20T18:29:53.565Z,23.50
2018-07-20T18:32:21.615Z,23.40
2018-07-20T18:34:49.682Z,23.50
2018-07-20T18:42:15.233Z,23.40
2018-07-20T18:44:43.614Z,23.30
2018-07-20T18:47:11.914Z,23.30
2018-07-20T18:49:40.398Z,23.30
2018-07-20T18:52:08.625Z,23.30
2018-07-20T18:54:36.637Z,23.40
2018-07-20T18:57:04.867Z,23.40
2018-07-20T18:59:33.231Z,23.40
2018-07-20T19:04:29.277Z,23.30
2018-07-20T19:09:25.738Z,23.10
2018-07-20T19:11:53.842Z,23.00
2018-07-20T19:14:21.971Z,22.90
2018-07-20T19:16:51.074Z,22.90
2018-07-20T19:19:19.227Z,22.90
2018-07-20T19:21:47.378Z,23.00
2018-07-20T19:24:15.374Z,23.10
2018-07-20T19:26:43.488Z,22.90
2018-07-20T19:29:11.954Z,22.80
2018-07-20T19:31:40.258Z,22.70
2018-07-20T19:34:08.654Z,22.80
2018-07-20T19:36:36.959Z,22.70
2018-07-20T19:39:07.645Z,22.70
2018-07-20T19:41:35.934Z,22.60
2018-07-20T19:44:03.970Z,22.70
2018-07-20T19:46:32.142Z,22.60
2018-07-20T19:49:00.695Z,22.50
2018-07-20T19:51:28.853Z,22.60
2018-07-20T19:53:56.845Z,22.60
2018-07-20T19:56:24.986Z,22.50
2018-07-20T19:58:53.375Z,22.50
2018-07-20T20:03:49.353Z,22.50
2018-07-20T20:06:17.389Z,22.50
2018-07-20T20:11:13.734Z,22.60
2018-07-20T20:13:42.154Z,22.50
2018-07-20T20:16:10.422Z,22.50
2018-07-20T20:18:38.542Z,22.60
2018-07-20T20:23:34.975Z,22.60
2018-07-20T20:28:32.450Z,22.50
2018-07-20T20:33:28.421Z,22.60
2018-07-20T20:35:56.913Z,22.60
2018-07-20T20:38:25.345Z,22.60
2018-07-20T20:40:54.110Z,22.60
2018-07-20T20:43:23.594Z,22.60
2018-07-20T20:50:48.248Z,22.50
2018-07-20T20:53:16.442Z,22.40
2018-07-20T20:55:44.626Z,22.50
2018-07-20T20:58:13.741Z,22.50
2018-07-20T21:00:42.289Z,22.40
2018-07-20T21:03:11.549Z,22.30
2018-07-20T21:05:39.921Z,22.30
2018-07-20T21:10:38.706Z,22.20
2018-07-20T21:13:07.774Z,22.20
2018-07-20T21:18:04.695Z,22.20
2018-07-20T21:20:33.261Z,22.20
2018-07-20T21:23:01.670Z,22.10
2018-07-20T21:25:30.134Z,22.00
2018-07-20T21:27:58.230Z,22.00
2018-07-20T21:30:27.030Z,21.90
2018-07-20T21:32:55.602Z,21.90
2018-07-20T21:35:24.068Z,21.80
2018-07-20T21:37:52.534Z,21.80
2018-07-20T21:40:20.935Z,21.80
2018-07-20T21:42:50.490Z,21.80
2018-07-20T21:45:18.580Z,21.80
2018-07-20T21:50:15.178Z,21.80
2018-07-20T21:52:43.793Z,21.80
2018-07-20T21:57:40.531Z,21.80
2018-07-20T22:00:16.713Z,21.80
2018-07-20T22:02:45.220Z,21.80
2018-07-20T22:05:13.903Z,21.80
2018-07-20T22:07:42.329Z,21.80
2018-07-20T22:15:07.930Z,21.90
2018-07-20T22:17:37.180Z,21.90
2018-07-20T22:20:07.277Z,21.90
2018-07-20T22:25:04.128Z,21.90
2018-07-20T22:27:32.126Z,21.80
2018-07-20T22:32:28.906Z,21.90
2018-07-20T22:34:57.366Z,21.90
2018-07-20T22:37:25.891Z,21.80
2018-07-20T22:39:56.014Z,21.80
2018-07-20T22:42:24.897Z,21.70
2018-07-20T22:44:53.423Z,21.70
2018-07-20T22:47:21.914Z,21.70
2018-07-20T22:49:50.083Z,21.70
2018-07-20T22:52:18.348Z,21.70
2018-07-20T22:54:47.308Z,21.60
2018-07-20T22:57:17.167Z,21.60
2018-07-20T22:59:46.438Z,21.50
2018-07-20T23:02:14.938Z,21.50
2018-07-20T23:04:43.898Z,21.50
2018-07-20T23:07:11.901Z,21.50
2018-07-20T23:09:40.426Z,21.50
2018-07-20T23:12:08.476Z,21.50
2018-07-20T23:14:37.147Z,21.50
2018-07-20T23:17:06.133Z,21.50
2018-07-20T23:19:34.115Z,21.70
2018-07-20T23:22:02.620Z,21.70
2018-07-20T23:26:58.746Z,21.60
2018-07-20T23:29:28.119Z,21.50
2018-07-20T23:31:56.159Z,21.30
2018-07-20T23:34:24.659Z,21.30
2018-07-20T23:39:20.711Z,21.20
2018-07-20T23:41:49.725Z,21.20
2018-07-20T23:44:18.224Z,21.00
2018-07-20T23:46:46.942Z,21.00
2018-07-20T23:49:14.926Z,20.90
2018-07-20T23:51:42.909Z,20.90
2018-07-20T23:56:40.144Z,20.90
2018-07-20T23:59:08.709Z,20.80
